sensor_id;sensor_type;location;lat;lon;timestamp;P1;durP1;ratioP1;P2;durP2;ratioP2
62925;SDS011;55732;52.248;-0.844;2022-08-18T00:01:42;8.20;;;2.30;;
62925;SDS011;55732;52.248;-0.844;2022-08-18T00:04:12;14.50;;;2.60;;
62925;SDS011;55732;52.248;-0.844;2022-08-18T00:06:38;8.40;;;2.30;;
62925;SDS011;55732;52.248;-0.844;2022-08-18T00:09:05;6.50;;;2.10;;
62925;SDS011;55732;52.248;-0.844;2022-08-18T00:11:37;10.90;;;2.90;;
62925;SDS011;55732;52.248;-0.844;2022-08-18T00:14:06;6.20;;;2.10;;
62925;SDS011;55732;52.248;-0.844;2022-08-18T00:16:32;9.30;;;2.30;;
62925;SDS011;55732;52.248;-0.844;2022-08-18T00:18:57;18.20;;;3.10;;
62925;SDS011;55732;52.248;-0.844;2022-08-18T00:21:24;5.60;;;1.80;;
62925;SDS011;55732;52.248;-0.844;2022-08-18T00:23:49;13.10;;;2.40;;
62925;SDS011;55732;52.248;-0.844;2022-08-18T00:26:15;10.40;;;2.00;;
62925;SDS011;55732;52.248;-0.844;2022-08-18T00:28:40;15.00;;;2.90;;
62925;SDS011;55732;52.248;-0.844;2022-08-18T00:31:06;9.60;;;2.20;;
62925;SDS011;55732;52.248;-0.844;2022-08-18T00:33:31;8.20;;;2.20;;
62925;SDS011;55732;52.248;-0.844;2022-08-18T00:35:57;10.40;;;2.50;;
62925;SDS011;55732;52.248;-0.844;2022-08-18T00:38:22;8.10;;;1.90;;
62925;SDS011;55732;52.248;-0.844;2022-08-18T00:40:49;9.20;;;2.50;;
62925;SDS011;55732;52.248;-0.844;2022-08-18T00:43:27;7.40;;;2.80;;
62925;SDS011;55732;52.248;-0.844;2022-08-18T00:45:58;10.70;;;3.40;;
62925;SDS011;55732;52.248;-0.844;2022-08-18T00:48:24;9.20;;;2.30;;
62925;SDS011;55732;52.248;-0.844;2022-08-18T00:50:51;10.90;;;2.90;;
62925;SDS011;55732;52.248;-0.844;2022-08-18T00:53:55;10.00;;;2.40;;
62925;SDS011;55732;52.248;-0.844;2022-08-18T00:56:27;17.40;;;3.00;;
62925;SDS011;55732;52.248;-0.844;2022-08-18T00:59:18;11.50;;;2.90;;
62925;SDS011;55732;52.248;-0.844;2022-08-18T01:01:58;13.30;;;2.30;;
62925;SDS011;55732;52.248;-0.844;2022-08-18T01:04:29;12.60;;;2.30;;
62925;SDS011;55732;52.248;-0.844;2022-08-18T01:07:04;8.50;;;2.30;;
62925;SDS011;55732;52.248;-0.844;2022-08-18T01:09:34;12.60;;;3.30;;
62925;SDS011;55732;52.248;-0.844;2022-08-18T01:12:00;13.90;;;2.90;;
62925;SDS011;55732;52.248;-0.844;2022-08-18T01:14:25;5.60;;;2.20;;
62925;SDS011;55732;52.248;-0.844;2022-08-18T01:16:51;7.40;;;2.20;;
62925;SDS011;55732;52.248;-0.844;2022-08-18T01:19:36;13.70;;;2.50;;
62925;SDS011;55732;52.248;-0.844;2022-08-18T01:22:37;11.40;;;2.70;;
62925;SDS011;55732;52.248;-0.844;2022-08-18T01:25:11;9.10;;;2.20;;
62925;SDS011;55732;52.248;-0.844;2022-08-18T01:27:57;9.30;;;2.60;;
62925;SDS011;55732;52.248;-0.844;2022-08-18T01:30:23;12.50;;;3.00;;
62925;SDS011;55732;52.248;-0.844;2022-08-18T01:32:51;11.20;;;2.80;;
62925;SDS011;55732;52.248;-0.844;2022-08-18T01:35:18;10.60;;;2.40;;
62925;SDS011;55732;52.248;-0.844;2022-08-18T01:37:47;12.40;;;2.60;;
62925;SDS011;55732;52.248;-0.844;2022-08-18T01:40:15;11.30;;;2.80;;
62925;SDS011;55732;52.248;-0.844;2022-08-18T01:42:41;10.70;;;2.60;;
62925;SDS011;55732;52.248;-0.844;2022-08-18T01:45:11;9.20;;;2.30;;
62925;SDS011;55732;52.248;-0.844;2022-08-18T01:47:38;13.50;;;3.10;;
62925;SDS011;55732;52.248;-0.844;2022-08-18T01:50:05;13.90;;;2.70;;
62925;SDS011;55732;52.248;-0.844;2022-08-18T01:52:32;14.30;;;2.40;;
62925;SDS011;55732;52.248;-0.844;2022-08-18T01:54:59;20.40;;;3.60;;
62925;SDS011;55732;52.248;-0.844;2022-08-18T02:02:46;13.00;;;2.60;;
62925;SDS011;55732;52.248;-0.844;2022-08-18T02:05:14;10.70;;;3.60;;
62925;SDS011;55732;52.248;-0.844;2022-08-18T02:07:43;15.30;;;2.30;;
62925;SDS011;55732;52.248;-0.844;2022-08-18T02:10:09;12.80;;;3.70;;
62925;SDS011;55732;52.248;-0.844;2022-08-18T02:12:36;12.80;;;2.80;;
62925;SDS011;55732;52.248;-0.844;2022-08-18T02:15:03;11.20;;;2.80;;
62925;SDS011;55732;52.248;-0.844;2022-08-18T02:17:34;8.00;;;2.10;;
62925;SDS011;55732;52.248;-0.844;2022-08-18T02:20:11;14.00;;;2.80;;
62925;SDS011;55732;52.248;-0.844;2022-08-18T02:22:39;14.30;;;3.60;;
62925;SDS011;55732;52.248;-0.844;2022-08-18T02:25:06;9.10;;;2.20;;
62925;SDS011;55732;52.248;-0.844;2022-08-18T02:27:32;9.10;;;2.10;;
62925;SDS011;55732;52.248;-0.844;2022-08-18T02:29:59;8.50;;;2.40;;
62925;SDS011;55732;52.248;-0.844;2022-08-18T02:32:26;10.70;;;2.50;;
62925;SDS011;55732;52.248;-0.844;2022-08-18T02:34:52;9.70;;;2.30;;
62925;SDS011;55732;52.248;-0.844;2022-08-18T02:37:18;13.60;;;2.90;;
62925;SDS011;55732;52.248;-0.844;2022-08-18T02:39:45;11.20;;;2.60;;
62925;SDS011;55732;52.248;-0.844;2022-08-18T02:42:10;10.00;;;2.60;;
62925;SDS011;55732;52.248;-0.844;2022-08-18T02:44:38;11.20;;;2.50;;
62925;SDS011;55732;52.248;-0.844;2022-08-18T02:47:04;9.50;;;2.90;;
62925;SDS011;55732;52.248;-0.844;2022-08-18T02:49:30;6.00;;;2.70;;
62925;SDS011;55732;52.248;-0.844;2022-08-18T02:51:55;9.10;;;2.70;;
62925;SDS011;55732;52.248;-0.844;2022-08-18T02:54:22;10.90;;;3.10;;
62925;SDS011;55732;52.248;-0.844;2022-08-18T02:56:49;8.60;;;3.50;;
62925;SDS011;55732;52.248;-0.844;2022-08-18T03:01:44;10.20;;;3.30;;
62925;SDS011;55732;52.248;-0.844;2022-08-18T03:04:14;8.50;;;3.10;;
62925;SDS011;55732;52.248;-0.844;2022-08-18T03:06:42;9.90;;;3.20;;
62925;SDS011;55732;52.248;-0.844;2022-08-18T03:09:08;11.00;;;3.80;;
62925;SDS011;55732;52.248;-0.844;2022-08-18T03:11:35;11.10;;;3.20;;
62925;SDS011;55732;52.248;-0.844;2022-08-18T03:14:02;9.70;;;3.10;;
62925;SDS011;55732;52.248;-0.844;2022-08-18T03:16:29;6.90;;;2.80;;
62925;SDS011;55732;52.248;-0.844;2022-08-18T03:18:57;13.20;;;3.70;;
62925;SDS011;55732;52.248;-0.844;2022-08-18T03:21:24;9.30;;;3.40;;
62925;SDS011;55732;52.248;-0.844;2022-08-18T03:23:51;10.60;;;3.20;;
62925;SDS011;55732;52.248;-0.844;2022-08-18T03:26:19;6.30;;;3.20;;
62925;SDS011;55732;52.248;-0.844;2022-08-18T03:28:48;7.40;;;3.00;;
62925;SDS011;55732;52.248;-0.844;2022-08-18T03:31:16;12.10;;;3.90;;
62925;SDS011;55732;52.248;-0.844;2022-08-18T03:33:43;11.30;;;3.00;;
62925;SDS011;55732;52.248;-0.844;2022-08-18T03:36:11;10.80;;;3.80;;
62925;SDS011;55732;52.248;-0.844;2022-08-18T03:38:39;11.10;;;3.60;;
62925;SDS011;55732;52.248;-0.844;2022-08-18T03:41:06;9.30;;;3.40;;
62925;SDS011;55732;52.248;-0.844;2022-08-18T03:43:33;7.40;;;3.40;;
62925;SDS011;55732;52.248;-0.844;2022-08-18T03:45:59;12.80;;;3.20;;
62925;SDS011;55732;52.248;-0.844;2022-08-18T03:48:29;11.00;;;3.40;;
62925;SDS011;55732;52.248;-0.844;2022-08-18T03:50:54;12.00;;;3.10;;
62925;SDS011;55732;52.248;-0.844;2022-08-18T03:53:26;15.00;;;4.00;;
62925;SDS011;55732;52.248;-0.844;2022-08-18T03:55:51;9.80;;;3.50;;
62925;SDS011;55732;52.248;-0.844;2022-08-18T03:58:17;8.60;;;3.40;;
62925;SDS011;55732;52.248;-0.844;2022-08-18T04:00:42;9.30;;;3.50;;
62925;SDS011;55732;52.248;-0.844;2022-08-18T04:03:08;8.70;;;3.30;;
62925;SDS011;55732;52.248;-0.844;2022-08-18T04:05:37;20.10;;;3.80;;
62925;SDS011;55732;52.248;-0.844;2022-08-18T04:08:03;11.70;;;4.70;;
62925;SDS011;55732;52.248;-0.844;2022-08-18T04:10:30;15.20;;;4.20;;
62925;SDS011;55732;52.248;-0.844;2022-08-18T04:12:56;12.10;;;3.50;;
62925;SDS011;55732;52.248;-0.844;2022-08-18T04:15:23;12.10;;;4.10;;
62925;SDS011;55732;52.248;-0.844;2022-08-18T04:17:49;13.90;;;4.60;;
62925;SDS011;55732;52.248;-0.844;2022-08-18T04:20:14;12.20;;;4.30;;
62925;SDS011;55732;52.248;-0.844;2022-08-18T04:22:40;10.50;;;3.70;;
62925;SDS011;55732;52.248;-0.844;2022-08-18T04:25:07;11.70;;;3.50;;
62925;SDS011;55732;52.248;-0.844;2022-08-18T04:27:34;16.70;;;4.40;;
62925;SDS011;55732;52.248;-0.844;2022-08-18T04:32:28;14.00;;;4.00;;
62925;SDS011;55732;52.248;-0.844;2022-08-18T04:34:54;10.40;;;4.10;;
62925;SDS011;55732;52.248;-0.844;2022-08-18T04:37:20;10.70;;;4.60;;
62925;SDS011;55732;52.248;-0.844;2022-08-18T04:39:46;18.10;;;3.70;;
62925;SDS011;55732;52.248;-0.844;2022-08-18T04:42:12;13.60;;;4.40;;
62925;SDS011;55732;52.248;-0.844;2022-08-18T04:44:38;12.30;;;4.30;;
62925;SDS011;55732;52.248;-0.844;2022-08-18T04:47:04;11.30;;;4.10;;
62925;SDS011;55732;52.248;-0.844;2022-08-18T04:49:33;13.50;;;4.30;;
62925;SDS011;55732;52.248;-0.844;2022-08-18T04:51:59;12.30;;;4.40;;
62925;SDS011;55732;52.248;-0.844;2022-08-18T04:54:43;9.20;;;4.10;;
62925;SDS011;55732;52.248;-0.844;2022-08-18T04:57:13;12.50;;;4.40;;
62925;SDS011;55732;52.248;-0.844;2022-08-18T04:59:44;12.40;;;4.00;;
62925;SDS011;55732;52.248;-0.844;2022-08-18T05:02:13;17.90;;;6.40;;
62925;SDS011;55732;52.248;-0.844;2022-08-18T05:04:41;10.30;;;3.80;;
62925;SDS011;55732;52.248;-0.844;2022-08-18T05:07:11;11.00;;;4.00;;
62925;SDS011;55732;52.248;-0.844;2022-08-18T05:09:38;16.20;;;4.20;;
62925;SDS011;55732;52.248;-0.844;2022-08-18T05:12:06;12.80;;;3.80;;
62925;SDS011;55732;52.248;-0.844;2022-08-18T05:14:33;18.90;;;5.20;;
62925;SDS011;55732;52.248;-0.844;2022-08-18T05:17:00;10.90;;;4.30;;
62925;SDS011;55732;52.248;-0.844;2022-08-18T05:19:27;14.90;;;4.30;;
62925;SDS011;55732;52.248;-0.844;2022-08-18T05:24:21;9.80;;;4.50;;
62925;SDS011;55732;52.248;-0.844;2022-08-18T05:26:52;16.00;;;4.90;;
62925;SDS011;55732;52.248;-0.844;2022-08-18T05:29:19;11.50;;;4.60;;
62925;SDS011;55732;52.248;-0.844;2022-08-18T05:31:46;14.30;;;6.20;;
62925;SDS011;55732;52.248;-0.844;2022-08-18T05:34:17;12.60;;;5.60;;
62925;SDS011;55732;52.248;-0.844;2022-08-18T05:41:48;18.90;;;6.60;;
62925;SDS011;55732;52.248;-0.844;2022-08-18T05:44:17;12.60;;;5.80;;
62925;SDS011;55732;52.248;-0.844;2022-08-18T05:46:58;14.50;;;6.00;;
62925;SDS011;55732;52.248;-0.844;2022-08-18T05:49:29;16.60;;;6.20;;
62925;SDS011;55732;52.248;-0.844;2022-08-18T05:51:57;16.10;;;6.30;;
62925;SDS011;55732;52.248;-0.844;2022-08-18T05:54:26;15.70;;;7.10;;
62925;SDS011;55732;52.248;-0.844;2022-08-18T05:57:25;16.70;;;7.20;;
62925;SDS011;55732;52.248;-0.844;2022-08-18T05:59:54;19.10;;;6.40;;
62925;SDS011;55732;52.248;-0.844;2022-08-18T06:05:07;13.40;;;6.30;;
62925;SDS011;55732;52.248;-0.844;2022-08-18T06:07:40;17.80;;;6.60;;
62925;SDS011;55732;52.248;-0.844;2022-08-18T06:10:10;16.90;;;7.20;;
62925;SDS011;55732;52.248;-0.844;2022-08-18T06:12:39;15.40;;;8.50;;
62925;SDS011;55732;52.248;-0.844;2022-08-18T06:20:33;18.00;;;8.40;;
62925;SDS011;55732;52.248;-0.844;2022-08-18T06:23:13;19.90;;;8.40;;
62925;SDS011;55732;52.248;-0.844;2022-08-18T06:28:43;14.40;;;7.70;;
62925;SDS011;55732;52.248;-0.844;2022-08-18T06:40:30;28.00;;;11.60;;
62925;SDS011;55732;52.248;-0.844;2022-08-18T06:42:55;27.30;;;11.50;;
62925;SDS011;55732;52.248;-0.844;2022-08-18T06:45:23;22.10;;;10.70;;
62925;SDS011;55732;52.248;-0.844;2022-08-18T06:47:59;19.10;;;9.80;;
62925;SDS011;55732;52.248;-0.844;2022-08-18T06:50:48;24.70;;;11.20;;
62925;SDS011;55732;52.248;-0.844;2022-08-18T06:53:17;20.00;;;9.90;;
62925;SDS011;55732;52.248;-0.844;2022-08-18T06:55:45;25.90;;;10.10;;
62925;SDS011;55732;52.248;-0.844;2022-08-18T07:00:40;26.90;;;12.70;;
62925;SDS011;55732;52.248;-0.844;2022-08-18T07:03:11;25.40;;;11.60;;
62925;SDS011;55732;52.248;-0.844;2022-08-18T07:11:34;24.20;;;11.40;;
62925;SDS011;55732;52.248;-0.844;2022-08-18T07:13:58;26.20;;;11.30;;
62925;SDS011;55732;52.248;-0.844;2022-08-18T07:17:11;32.70;;;11.90;;
62925;SDS011;55732;52.248;-0.844;2022-08-18T07:19:38;29.80;;;12.00;;
62925;SDS011;55732;52.248;-0.844;2022-08-18T07:22:12;29.20;;;12.70;;
62925;SDS011;55732;52.248;-0.844;2022-08-18T07:24:42;29.50;;;12.50;;
62925;SDS011;55732;52.248;-0.844;2022-08-18T07:27:11;27.00;;;12.90;;
62925;SDS011;55732;52.248;-0.844;2022-08-18T07:30:14;27.50;;;12.80;;
62925;SDS011;55732;52.248;-0.844;2022-08-18T07:32:47;24.10;;;12.40;;
62925;SDS011;55732;52.248;-0.844;2022-08-18T07:35:18;18.60;;;11.60;;
62925;SDS011;55732;52.248;-0.844;2022-08-18T07:37:55;24.20;;;12.10;;
62925;SDS011;55732;52.248;-0.844;2022-08-18T07:40:39;18.70;;;11.40;;
62925;SDS011;55732;52.248;-0.844;2022-08-18T07:43:22;21.10;;;11.50;;
62925;SDS011;55732;52.248;-0.844;2022-08-18T07:46:24;17.20;;;11.00;;
62925;SDS011;55732;52.248;-0.844;2022-08-18T07:49:00;21.10;;;12.10;;
62925;SDS011;55732;52.248;-0.844;2022-08-18T08:07:27;21.40;;;10.60;;
62925;SDS011;55732;52.248;-0.844;2022-08-18T08:12:27;17.30;;;10.90;;
62925;SDS011;55732;52.248;-0.844;2022-08-18T08:15:25;22.00;;;11.60;;
62925;SDS011;55732;52.248;-0.844;2022-08-18T08:20:59;19.20;;;11.10;;
62925;SDS011;55732;52.248;-0.844;2022-08-18T08:23:44;22.00;;;11.10;;
62925;SDS011;55732;52.248;-0.844;2022-08-18T08:37:19;20.60;;;12.20;;
62925;SDS011;55732;52.248;-0.844;2022-08-18T08:39:52;20.70;;;12.60;;
62925;SDS011;55732;52.248;-0.844;2022-08-18T08:45:27;18.50;;;10.70;;
62925;SDS011;55732;52.248;-0.844;2022-08-18T08:50:48;18.80;;;10.90;;
62925;SDS011;55732;52.248;-0.844;2022-08-18T08:55:58;22.20;;;11.30;;
62925;SDS011;55732;52.248;-0.844;2022-08-18T09:01:09;19.60;;;11.00;;
62925;SDS011;55732;52.248;-0.844;2022-08-18T09:03:52;16.80;;;10.80;;
62925;SDS011;55732;52.248;-0.844;2022-08-18T09:07:02;17.20;;;10.40;;
62925;SDS011;55732;52.248;-0.844;2022-08-18T09:23:23;21.60;;;10.80;;
62925;SDS011;55732;52.248;-0.844;2022-08-18T09:25:58;14.90;;;10.10;;
62925;SDS011;55732;52.248;-0.844;2022-08-18T09:28:59;20.00;;;10.40;;
62925;SDS011;55732;52.248;-0.844;2022-08-18T09:31:38;25.90;;;11.40;;
62925;SDS011;55732;52.248;-0.844;2022-08-18T09:42:15;18.90;;;10.90;;
62925;SDS011;55732;52.248;-0.844;2022-08-18T09:49:47;17.40;;;9.70;;
62925;SDS011;55732;52.248;-0.844;2022-08-18T09:57:22;15.20;;;10.00;;
62925;SDS011;55732;52.248;-0.844;2022-08-18T09:59:55;16.40;;;9.40;;
62925;SDS011;55732;52.248;-0.844;2022-08-18T10:05:27;17.20;;;9.20;;
62925;SDS011;55732;52.248;-0.844;2022-08-18T10:21:12;11.80;;;8.60;;
62925;SDS011;55732;52.248;-0.844;2022-08-18T10:28:56;11.80;;;8.10;;
62925;SDS011;55732;52.248;-0.844;2022-08-18T10:31:24;12.00;;;8.30;;
62925;SDS011;55732;52.248;-0.844;2022-08-18T10:39:14;8.90;;;6.90;;
62925;SDS011;55732;52.248;-0.844;2022-08-18T10:41:55;12.00;;;7.30;;
62925;SDS011;55732;52.248;-0.844;2022-08-18T10:44:26;9.50;;;6.80;;
62925;SDS011;55732;52.248;-0.844;2022-08-18T10:46:55;9.70;;;6.60;;
62925;SDS011;55732;52.248;-0.844;2022-08-18T10:49:24;8.80;;;5.70;;
62925;SDS011;55732;52.248;-0.844;2022-08-18T11:05:03;8.30;;;6.40;;
62925;SDS011;55732;52.248;-0.844;2022-08-18T11:07:31;8.00;;;5.10;;
62925;SDS011;55732;52.248;-0.844;2022-08-18T11:09:59;11.40;;;5.80;;
62925;SDS011;55732;52.248;-0.844;2022-08-18T11:15:20;6.20;;;5.10;;
62925;SDS011;55732;52.248;-0.844;2022-08-18T11:18:22;7.10;;;4.80;;
62925;SDS011;55732;52.248;-0.844;2022-08-18T11:24:21;9.50;;;5.80;;
62925;SDS011;55732;52.248;-0.844;2022-08-18T11:26:56;5.70;;;4.80;;
62925;SDS011;55732;52.248;-0.844;2022-08-18T11:34:47;7.30;;;5.40;;
62925;SDS011;55732;52.248;-0.844;2022-08-18T11:43:01;9.50;;;5.30;;
62925;SDS011;55732;52.248;-0.844;2022-08-18T11:51:08;9.90;;;4.80;;
62925;SDS011;55732;52.248;-0.844;2022-08-18T12:03:58;7.10;;;5.00;;
62925;SDS011;55732;52.248;-0.844;2022-08-18T12:06:32;6.80;;;4.60;;
62925;SDS011;55732;52.248;-0.844;2022-08-18T12:09:11;9.20;;;4.80;;
62925;SDS011;55732;52.248;-0.844;2022-08-18T12:14:19;6.80;;;4.50;;
62925;SDS011;55732;52.248;-0.844;2022-08-18T12:16:48;7.60;;;4.80;;
62925;SDS011;55732;52.248;-0.844;2022-08-18T12:19:14;6.50;;;5.50;;
62925;SDS011;55732;52.248;-0.844;2022-08-18T12:21:41;6.60;;;5.00;;
62925;SDS011;55732;52.248;-0.844;2022-08-18T12:24:11;7.60;;;4.10;;
62925;SDS011;55732;52.248;-0.844;2022-08-18T12:26:44;6.90;;;4.40;;
62925;SDS011;55732;52.248;-0.844;2022-08-18T12:29:10;7.00;;;4.00;;
62925;SDS011;55732;52.248;-0.844;2022-08-18T12:31:36;6.80;;;3.80;;
62925;SDS011;55732;52.248;-0.844;2022-08-18T12:34:01;8.30;;;3.90;;
62925;SDS011;55732;52.248;-0.844;2022-08-18T12:36:28;5.80;;;3.80;;
62925;SDS011;55732;52.248;-0.844;2022-08-18T12:38:54;5.10;;;3.60;;
62925;SDS011;55732;52.248;-0.844;2022-08-18T12:41:20;4.40;;;2.90;;
62925;SDS011;55732;52.248;-0.844;2022-08-18T12:43:45;6.50;;;3.80;;
62925;SDS011;55732;52.248;-0.844;2022-08-18T12:46:11;4.50;;;2.90;;
62925;SDS011;55732;52.248;-0.844;2022-08-18T12:48:37;5.20;;;2.80;;
62925;SDS011;55732;52.248;-0.844;2022-08-18T12:51:03;5.70;;;2.70;;
62925;SDS011;55732;52.248;-0.844;2022-08-18T12:53:29;3.90;;;2.70;;
62925;SDS011;55732;52.248;-0.844;2022-08-18T12:55:55;10.50;;;2.50;;
62925;SDS011;55732;52.248;-0.844;2022-08-18T12:58:20;3.40;;;2.40;;
62925;SDS011;55732;52.248;-0.844;2022-08-18T13:00:46;4.10;;;2.60;;
62925;SDS011;55732;52.248;-0.844;2022-08-18T13:03:12;4.40;;;2.50;;
62925;SDS011;55732;52.248;-0.844;2022-08-18T13:05:38;4.90;;;2.80;;
62925;SDS011;55732;52.248;-0.844;2022-08-18T13:08:04;10.50;;;3.70;;
62925;SDS011;55732;52.248;-0.844;2022-08-18T13:10:32;2.70;;;2.30;;
62925;SDS011;55732;52.248;-0.844;2022-08-18T13:12:58;4.00;;;2.50;;
62925;SDS011;55732;52.248;-0.844;2022-08-18T13:15:23;3.20;;;2.50;;
62925;SDS011;55732;52.248;-0.844;2022-08-18T13:17:49;5.20;;;2.60;;
62925;SDS011;55732;52.248;-0.844;2022-08-18T13:20:15;3.20;;;2.20;;
62925;SDS011;55732;52.248;-0.844;2022-08-18T13:22:41;3.20;;;2.60;;
62925;SDS011;55732;52.248;-0.844;2022-08-18T13:25:11;4.00;;;2.80;;
62925;SDS011;55732;52.248;-0.844;2022-08-18T13:27:39;6.20;;;2.50;;
62925;SDS011;55732;52.248;-0.844;2022-08-18T13:30:07;7.20;;;2.60;;
62925;SDS011;55732;52.248;-0.844;2022-08-18T13:32:35;2.80;;;2.30;;
62925;SDS011;55732;52.248;-0.844;2022-08-18T13:35:01;4.10;;;2.20;;
62925;SDS011;55732;52.248;-0.844;2022-08-18T13:37:27;3.90;;;2.30;;
62925;SDS011;55732;52.248;-0.844;2022-08-18T13:39:54;7.20;;;2.70;;
62925;SDS011;55732;52.248;-0.844;2022-08-18T13:42:20;6.50;;;2.80;;
62925;SDS011;55732;52.248;-0.844;2022-08-18T13:44:45;3.50;;;2.30;;
62925;SDS011;55732;52.248;-0.844;2022-08-18T13:47:11;2.50;;;2.10;;
62925;SDS011;55732;52.248;-0.844;2022-08-18T13:49:36;4.70;;;2.30;;
62925;SDS011;55732;52.248;-0.844;2022-08-18T13:52:02;5.50;;;2.70;;
62925;SDS011;55732;52.248;-0.844;2022-08-18T13:54:30;3.30;;;2.80;;
62925;SDS011;55732;52.248;-0.844;2022-08-18T13:56:57;3.30;;;2.40;;
62925;SDS011;55732;52.248;-0.844;2022-08-18T13:59:24;6.30;;;2.80;;
62925;SDS011;55732;52.248;-0.844;2022-08-18T14:01:55;4.70;;;2.50;;
62925;SDS011;55732;52.248;-0.844;2022-08-18T14:04:22;4.90;;;2.60;;
62925;SDS011;55732;52.248;-0.844;2022-08-18T14:06:52;4.50;;;2.80;;
62925;SDS011;55732;52.248;-0.844;2022-08-18T14:09:19;4.00;;;2.70;;
62925;SDS011;55732;52.248;-0.844;2022-08-18T14:11:45;2.90;;;2.60;;
62925;SDS011;55732;52.248;-0.844;2022-08-18T14:14:11;4.20;;;2.60;;
62925;SDS011;55732;52.248;-0.844;2022-08-18T14:16:37;4.50;;;2.50;;
62925;SDS011;55732;52.248;-0.844;2022-08-18T14:19:03;3.30;;;2.60;;
62925;SDS011;55732;52.248;-0.844;2022-08-18T14:21:48;5.20;;;2.60;;
62925;SDS011;55732;52.248;-0.844;2022-08-18T14:24:34;5.50;;;2.60;;
62925;SDS011;55732;52.248;-0.844;2022-08-18T14:27:24;7.00;;;2.90;;
62925;SDS011;55732;52.248;-0.844;2022-08-18T14:29:54;3.80;;;2.70;;
62925;SDS011;55732;52.248;-0.844;2022-08-18T14:32:23;3.80;;;3.00;;
62925;SDS011;55732;52.248;-0.844;2022-08-18T14:34:57;3.40;;;2.50;;
62925;SDS011;55732;52.248;-0.844;2022-08-18T14:37:24;4.00;;;3.00;;
62925;SDS011;55732;52.248;-0.844;2022-08-18T14:39:51;4.20;;;3.00;;
62925;SDS011;55732;52.248;-0.844;2022-08-18T14:42:17;6.10;;;3.20;;
62925;SDS011;55732;52.248;-0.844;2022-08-18T14:44:45;4.60;;;3.10;;
62925;SDS011;55732;52.248;-0.844;2022-08-18T14:47:14;6.80;;;3.30;;
62925;SDS011;55732;52.248;-0.844;2022-08-18T14:49:39;7.70;;;3.20;;
62925;SDS011;55732;52.248;-0.844;2022-08-18T14:52:05;4.80;;;3.10;;
62925;SDS011;55732;52.248;-0.844;2022-08-18T14:54:32;6.30;;;3.30;;
62925;SDS011;55732;52.248;-0.844;2022-08-18T14:56:58;7.30;;;3.20;;
62925;SDS011;55732;52.248;-0.844;2022-08-18T14:59:26;4.60;;;3.20;;
62925;SDS011;55732;52.248;-0.844;2022-08-18T15:01:55;3.50;;;2.60;;
62925;SDS011;55732;52.248;-0.844;2022-08-18T15:06:47;3.50;;;2.40;;
62925;SDS011;55732;52.248;-0.844;2022-08-18T15:09:13;3.70;;;3.00;;
62925;SDS011;55732;52.248;-0.844;2022-08-18T15:11:39;4.10;;;2.90;;
62925;SDS011;55732;52.248;-0.844;2022-08-18T15:14:05;3.40;;;2.60;;
62925;SDS011;55732;52.248;-0.844;2022-08-18T15:16:31;4.60;;;2.80;;
62925;SDS011;55732;52.248;-0.844;2022-08-18T15:19:00;4.00;;;2.70;;
62925;SDS011;55732;52.248;-0.844;2022-08-18T15:21:28;4.60;;;3.20;;
62925;SDS011;55732;52.248;-0.844;2022-08-18T15:24:14;8.80;;;2.90;;
62925;SDS011;55732;52.248;-0.844;2022-08-18T15:27:00;5.60;;;3.00;;
62925;SDS011;55732;52.248;-0.844;2022-08-18T15:29:30;6.00;;;2.80;;
62925;SDS011;55732;52.248;-0.844;2022-08-18T15:31:56;6.60;;;2.90;;
62925;SDS011;55732;52.248;-0.844;2022-08-18T15:34:23;4.00;;;2.90;;
62925;SDS011;55732;52.248;-0.844;2022-08-18T15:36:48;4.10;;;2.90;;
62925;SDS011;55732;52.248;-0.844;2022-08-18T15:39:14;3.40;;;2.60;;
62925;SDS011;55732;52.248;-0.844;2022-08-18T15:41:44;3.70;;;2.60;;
62925;SDS011;55732;52.248;-0.844;2022-08-18T15:44:13;3.10;;;2.50;;
62925;SDS011;55732;52.248;-0.844;2022-08-18T15:46:41;5.50;;;2.70;;
62925;SDS011;55732;52.248;-0.844;2022-08-18T15:49:08;3.70;;;2.90;;
62925;SDS011;55732;52.248;-0.844;2022-08-18T15:51:34;4.80;;;3.60;;
62925;SDS011;55732;52.248;-0.844;2022-08-18T15:54:01;5.40;;;2.40;;
62925;SDS011;55732;52.248;-0.844;2022-08-18T15:56:28;5.40;;;2.90;;
62925;SDS011;55732;52.248;-0.844;2022-08-18T15:58:55;3.40;;;2.50;;
62925;SDS011;55732;52.248;-0.844;2022-08-18T16:01:21;4.20;;;2.80;;
62925;SDS011;55732;52.248;-0.844;2022-08-18T16:03:49;9.10;;;2.70;;
62925;SDS011;55732;52.248;-0.844;2022-08-18T16:06:17;7.90;;;2.70;;
62925;SDS011;55732;52.248;-0.844;2022-08-18T16:08:44;3.30;;;2.30;;
62925;SDS011;55732;52.248;-0.844;2022-08-18T16:11:11;5.10;;;2.60;;
62925;SDS011;55732;52.248;-0.844;2022-08-18T16:13:38;3.90;;;2.80;;
62925;SDS011;55732;52.248;-0.844;2022-08-18T16:16:11;5.20;;;3.00;;
62925;SDS011;55732;52.248;-0.844;2022-08-18T16:18:38;4.50;;;2.40;;
62925;SDS011;55732;52.248;-0.844;2022-08-18T16:21:09;4.60;;;2.50;;
62925;SDS011;55732;52.248;-0.844;2022-08-18T16:23:36;3.70;;;2.40;;
62925;SDS011;55732;52.248;-0.844;2022-08-18T16:26:03;4.90;;;2.30;;
62925;SDS011;55732;52.248;-0.844;2022-08-18T16:28:29;4.80;;;2.30;;
62925;SDS011;55732;52.248;-0.844;2022-08-18T16:30:55;5.20;;;2.40;;
62925;SDS011;55732;52.248;-0.844;2022-08-18T16:33:22;6.80;;;2.40;;
62925;SDS011;55732;52.248;-0.844;2022-08-18T16:35:47;2.90;;;2.20;;
62925;SDS011;55732;52.248;-0.844;2022-08-18T16:38:15;2.20;;;2.00;;
62925;SDS011;55732;52.248;-0.844;2022-08-18T16:40:41;5.80;;;2.10;;
62925;SDS011;55732;52.248;-0.844;2022-08-18T16:43:06;5.20;;;2.40;;
62925;SDS011;55732;52.248;-0.844;2022-08-18T16:45:33;5.00;;;2.40;;
62925;SDS011;55732;52.248;-0.844;2022-08-18T16:48:01;3.20;;;2.10;;
62925;SDS011;55732;52.248;-0.844;2022-08-18T16:50:27;2.30;;;2.10;;
62925;SDS011;55732;52.248;-0.844;2022-08-18T16:52:52;4.10;;;2.20;;
62925;SDS011;55732;52.248;-0.844;2022-08-18T16:55:19;6.10;;;2.10;;
62925;SDS011;55732;52.248;-0.844;2022-08-18T16:57:44;3.30;;;2.10;;
62925;SDS011;55732;52.248;-0.844;2022-08-18T17:00:29;2.80;;;2.00;;
62925;SDS011;55732;52.248;-0.844;2022-08-18T17:03:15;5.40;;;2.30;;
62925;SDS011;55732;52.248;-0.844;2022-08-18T17:08:30;5.60;;;2.20;;
62925;SDS011;55732;52.248;-0.844;2022-08-18T17:11:03;4.90;;;2.40;;
62925;SDS011;55732;52.248;-0.844;2022-08-18T17:13:32;4.20;;;2.00;;
62925;SDS011;55732;52.248;-0.844;2022-08-18T17:15:58;4.00;;;1.90;;
62925;SDS011;55732;52.248;-0.844;2022-08-18T17:18:23;3.70;;;2.00;;
62925;SDS011;55732;52.248;-0.844;2022-08-18T17:20:49;3.30;;;2.10;;
62925;SDS011;55732;52.248;-0.844;2022-08-18T17:23:16;3.50;;;1.70;;
62925;SDS011;55732;52.248;-0.844;2022-08-18T17:25:42;10.60;;;2.90;;
62925;SDS011;55732;52.248;-0.844;2022-08-18T17:30:38;4.70;;;2.10;;
62925;SDS011;55732;52.248;-0.844;2022-08-18T17:33:11;3.40;;;2.10;;
62925;SDS011;55732;52.248;-0.844;2022-08-18T17:35:40;3.10;;;2.40;;
62925;SDS011;55732;52.248;-0.844;2022-08-18T17:38:13;4.10;;;2.20;;
62925;SDS011;55732;52.248;-0.844;2022-08-18T17:41:12;7.60;;;2.10;;
62925;SDS011;55732;52.248;-0.844;2022-08-18T17:43:40;2.40;;;2.20;;
62925;SDS011;55732;52.248;-0.844;2022-08-18T17:46:11;8.40;;;2.30;;
62925;SDS011;55732;52.248;-0.844;2022-08-18T17:51:45;2.70;;;2.20;;
62925;SDS011;55732;52.248;-0.844;2022-08-18T17:56:39;4.90;;;2.20;;
62925;SDS011;55732;52.248;-0.844;2022-08-18T17:59:10;3.70;;;2.00;;
62925;SDS011;55732;52.248;-0.844;2022-08-18T18:01:40;3.50;;;2.10;;
62925;SDS011;55732;52.248;-0.844;2022-08-18T18:04:07;3.00;;;2.10;;
62925;SDS011;55732;52.248;-0.844;2022-08-18T18:06:40;4.80;;;1.90;;
62925;SDS011;55732;52.248;-0.844;2022-08-18T18:11:38;2.20;;;1.80;;
62925;SDS011;55732;52.248;-0.844;2022-08-18T18:17:18;4.10;;;1.80;;
62925;SDS011;55732;52.248;-0.844;2022-08-18T18:19:51;3.20;;;1.80;;
62925;SDS011;55732;52.248;-0.844;2022-08-18T18:22:36;3.20;;;1.60;;